sensor_id;sensor_type;location;lat;lon;timestamp;P1;durP1;ratioP1;P2;durP2;ratioP2
7080;SDS011;3582;51.506;11.948;2023-06-01T00:02:03;4.23;;;2.80;;
7080;SDS011;3582;51.506;11.948;2023-06-01T00:04:29;3.40;;;2.53;;
7080;SDS011;3582;51.506;11.948;2023-06-01T00:06:55;4.10;;;3.17;;
7080;SDS011;3582;51.506;11.948;2023-06-01T00:09:21;3.43;;;2.70;;
7080;SDS011;3582;51.506;11.948;2023-06-01T00:11:47;2.47;;;2.27;;
7080;SDS011;3582;51.506;11.948;2023-06-01T00:14:13;3.47;;;3.17;;
7080;SDS011;3582;51.506;11.948;2023-06-01T00:16:39;2.40;;;2.17;;
7080;SDS011;3582;51.506;11.948;2023-06-01T00:19:05;4.33;;;2.83;;
7080;SDS011;3582;51.506;11.948;2023-06-01T00:21:31;3.70;;;3.40;;
7080;SDS011;3582;51.506;11.948;2023-06-01T00:24:00;4.47;;;2.40;;
7080;SDS011;3582;51.506;11.948;2023-06-01T00:26:26;2.80;;;2.60;;
7080;SDS011;3582;51.506;11.948;2023-06-01T00:28:52;7.80;;;3.23;;
7080;SDS011;3582;51.506;11.948;2023-06-01T00:31:17;3.67;;;2.93;;
7080;SDS011;3582;51.506;11.948;2023-06-01T00:33:43;5.77;;;3.20;;
7080;SDS011;3582;51.506;11.948;2023-06-01T00:36:09;3.93;;;2.40;;
7080;SDS011;3582;51.506;11.948;2023-06-01T00:38:35;3.10;;;2.80;;
7080;SDS011;3582;51.506;11.948;2023-06-01T00:41:01;2.67;;;2.30;;
7080;SDS011;3582;51.506;11.948;2023-06-01T00:43:27;2.77;;;2.57;;
7080;SDS011;3582;51.506;11.948;2023-06-01T00:45:53;4.37;;;3.97;;
7080;SDS011;3582;51.506;11.948;2023-06-01T00:48:19;11.90;;;3.57;;
7080;SDS011;3582;51.506;11.948;2023-06-01T00:50:46;4.17;;;3.47;;
7080;SDS011;3582;51.506;11.948;2023-06-01T00:53:16;3.77;;;3.47;;
7080;SDS011;3582;51.506;11.948;2023-06-01T00:55:42;3.63;;;2.97;;
7080;SDS011;3582;51.506;11.948;2023-06-01T00:58:08;4.13;;;3.10;;
7080;SDS011;3582;51.506;11.948;2023-06-01T01:00:34;9.13;;;4.40;;
7080;SDS011;3582;51.506;11.948;2023-06-01T01:03:02;3.50;;;3.20;;
7080;SDS011;3582;51.506;11.948;2023-06-01T01:05:32;3.50;;;2.70;;
7080;SDS011;3582;51.506;11.948;2023-06-01T01:08:09;3.70;;;3.40;;
7080;SDS011;3582;51.506;11.948;2023-06-01T01:10:41;5.33;;;3.47;;
7080;SDS011;3582;51.506;11.948;2023-06-01T01:15:41;3.87;;;2.90;;
7080;SDS011;3582;51.506;11.948;2023-06-01T01:18:11;3.87;;;3.00;;
7080;SDS011;3582;51.506;11.948;2023-06-01T01:20:43;5.47;;;3.23;;
7080;SDS011;3582;51.506;11.948;2023-06-01T01:23:12;6.03;;;2.80;;
7080;SDS011;3582;51.506;11.948;2023-06-01T01:28:33;5.40;;;2.90;;
7080;SDS011;3582;51.506;11.948;2023-06-01T01:31:04;5.53;;;3.00;;
7080;SDS011;3582;51.506;11.948;2023-06-01T01:33:31;4.53;;;2.97;;
7080;SDS011;3582;51.506;11.948;2023-06-01T01:35:59;3.17;;;2.60;;
7080;SDS011;3582;51.506;11.948;2023-06-01T01:38:25;2.97;;;2.77;;
7080;SDS011;3582;51.506;11.948;2023-06-01T01:40:51;2.87;;;2.70;;
7080;SDS011;3582;51.506;11.948;2023-06-01T01:43:18;6.53;;;2.83;;
7080;SDS011;3582;51.506;11.948;2023-06-01T01:45:44;4.23;;;2.83;;
7080;SDS011;3582;51.506;11.948;2023-06-01T01:48:18;3.70;;;2.80;;
7080;SDS011;3582;51.506;11.948;2023-06-01T01:50:56;8.27;;;3.20;;
7080;SDS011;3582;51.506;11.948;2023-06-01T01:53:23;4.60;;;2.70;;
7080;SDS011;3582;51.506;11.948;2023-06-01T01:55:49;5.10;;;2.63;;
7080;SDS011;3582;51.506;11.948;2023-06-01T01:58:16;4.93;;;2.80;;
7080;SDS011;3582;51.506;11.948;2023-06-01T02:00:42;3.20;;;2.90;;
7080;SDS011;3582;51.506;11.948;2023-06-01T02:03:12;5.53;;;3.30;;
7080;SDS011;3582;51.506;11.948;2023-06-01T02:05:38;4.60;;;3.10;;
7080;SDS011;3582;51.506;11.948;2023-06-01T02:08:04;3.83;;;3.50;;
7080;SDS011;3582;51.506;11.948;2023-06-01T02:10:30;5.70;;;4.47;;
7080;SDS011;3582;51.506;11.948;2023-06-01T02:12:56;7.03;;;3.20;;
7080;SDS011;3582;51.506;11.948;2023-06-01T02:15:22;5.33;;;3.70;;
7080;SDS011;3582;51.506;11.948;2023-06-01T02:17:48;3.47;;;3.00;;
7080;SDS011;3582;51.506;11.948;2023-06-01T02:20:16;4.50;;;2.83;;
7080;SDS011;3582;51.506;11.948;2023-06-01T02:22:42;3.63;;;3.13;;
7080;SDS011;3582;51.506;11.948;2023-06-01T02:25:08;3.57;;;3.10;;
7080;SDS011;3582;51.506;11.948;2023-06-01T02:27:34;4.60;;;3.50;;
7080;SDS011;3582;51.506;11.948;2023-06-01T02:30:00;4.00;;;3.60;;
7080;SDS011;3582;51.506;11.948;2023-06-01T02:32:26;5.13;;;3.60;;
7080;SDS011;3582;51.506;11.948;2023-06-01T02:34:55;5.40;;;3.53;;
7080;SDS011;3582;51.506;11.948;2023-06-01T02:37:21;6.93;;;4.40;;
7080;SDS011;3582;51.506;11.948;2023-06-01T02:39:47;4.00;;;3.50;;
7080;SDS011;3582;51.506;11.948;2023-06-01T02:42:13;5.13;;;4.60;;
7080;SDS011;3582;51.506;11.948;2023-06-01T02:44:39;9.50;;;5.03;;
7080;SDS011;3582;51.506;11.948;2023-06-01T02:47:05;5.80;;;4.13;;
7080;SDS011;3582;51.506;11.948;2023-06-01T02:49:32;7.10;;;4.53;;
7080;SDS011;3582;51.506;11.948;2023-06-01T02:51:57;6.40;;;4.50;;
7080;SDS011;3582;51.506;11.948;2023-06-01T02:54:24;6.30;;;4.30;;
7080;SDS011;3582;51.506;11.948;2023-06-01T02:56:49;5.43;;;4.93;;
7080;SDS011;3582;51.506;11.948;2023-06-01T02:59:15;8.00;;;4.03;;
7080;SDS011;3582;51.506;11.948;2023-06-01T03:01:41;6.77;;;4.57;;
7080;SDS011;3582;51.506;11.948;2023-06-01T03:04:07;9.43;;;5.77;;
7080;SDS011;3582;51.506;11.948;2023-06-01T03:06:35;6.83;;;5.00;;
7080;SDS011;3582;51.506;11.948;2023-06-01T03:09:02;7.93;;;6.03;;
7080;SDS011;3582;51.506;11.948;2023-06-01T03:11:28;6.60;;;5.67;;
7080;SDS011;3582;51.506;11.948;2023-06-01T03:13:54;10.17;;;6.50;;
7080;SDS011;3582;51.506;11.948;2023-06-01T03:16:22;5.70;;;4.90;;
7080;SDS011;3582;51.506;11.948;2023-06-01T03:18:48;7.10;;;4.77;;
7080;SDS011;3582;51.506;11.948;2023-06-01T03:21:14;7.77;;;5.60;;
7080;SDS011;3582;51.506;11.948;2023-06-01T03:23:41;12.80;;;6.73;;
7080;SDS011;3582;51.506;11.948;2023-06-01T03:26:11;8.57;;;6.03;;
7080;SDS011;3582;51.506;11.948;2023-06-01T03:28:38;9.43;;;6.60;;
7080;SDS011;3582;51.506;11.948;2023-06-01T03:31:04;21.20;;;6.73;;
7080;SDS011;3582;51.506;11.948;2023-06-01T03:33:32;8.37;;;5.90;;
7080;SDS011;3582;51.506;11.948;2023-06-01T03:35:58;11.73;;;7.20;;
7080;SDS011;3582;51.506;11.948;2023-06-01T03:38:24;10.60;;;6.17;;
7080;SDS011;3582;51.506;11.948;2023-06-01T03:40:50;17.57;;;7.37;;
7080;SDS011;3582;51.506;11.948;2023-06-01T03:43:16;10.53;;;6.70;;
7080;SDS011;3582;51.506;11.948;2023-06-01T03:45:42;15.00;;;8.40;;
7080;SDS011;3582;51.506;11.948;2023-06-01T03:48:08;9.07;;;7.20;;
7080;SDS011;3582;51.506;11.948;2023-06-01T03:50:34;11.57;;;6.03;;
7080;SDS011;3582;51.506;11.948;2023-06-01T03:52:59;8.83;;;6.63;;
7080;SDS011;3582;51.506;11.948;2023-06-01T03:55:25;10.93;;;6.77;;
7080;SDS011;3582;51.506;11.948;2023-06-01T03:57:52;10.77;;;7.70;;
7080;SDS011;3582;51.506;11.948;2023-06-01T04:00:18;10.90;;;6.97;;
7080;SDS011;3582;51.506;11.948;2023-06-01T04:02:48;10.03;;;8.20;;
7080;SDS011;3582;51.506;11.948;2023-06-01T04:05:20;13.60;;;7.97;;
7080;SDS011;3582;51.506;11.948;2023-06-01T04:07:46;12.67;;;6.70;;
7080;SDS011;3582;51.506;11.948;2023-06-01T04:10:13;15.93;;;7.47;;
7080;SDS011;3582;51.506;11.948;2023-06-01T04:12:43;8.67;;;6.37;;
7080;SDS011;3582;51.506;11.948;2023-06-01T04:15:09;16.03;;;8.43;;
7080;SDS011;3582;51.506;11.948;2023-06-01T04:17:36;12.67;;;7.70;;
7080;SDS011;3582;51.506;11.948;2023-06-01T04:20:03;12.20;;;7.50;;
7080;SDS011;3582;51.506;11.948;2023-06-01T04:22:31;12.33;;;7.50;;
7080;SDS011;3582;51.506;11.948;2023-06-01T04:24:57;17.90;;;8.50;;
7080;SDS011;3582;51.506;11.948;2023-06-01T04:27:23;9.80;;;6.80;;
7080;SDS011;3582;51.506;11.948;2023-06-01T04:29:49;12.13;;;7.43;;
7080;SDS011;3582;51.506;11.948;2023-06-01T04:32:16;9.87;;;7.77;;
7080;SDS011;3582;51.506;11.948;2023-06-01T04:34:46;11.00;;;8.80;;
7080;SDS011;3582;51.506;11.948;2023-06-01T04:37:16;9.50;;;7.60;;
7080;SDS011;3582;51.506;11.948;2023-06-01T04:39:46;12.20;;;8.57;;
7080;SDS011;3582;51.506;11.948;2023-06-01T04:42:16;17.97;;;9.90;;
7080;SDS011;3582;51.506;11.948;2023-06-01T04:44:44;15.10;;;9.57;;
7080;SDS011;3582;51.506;11.948;2023-06-01T04:47:11;14.10;;;9.90;;
7080;SDS011;3582;51.506;11.948;2023-06-01T04:49:39;47.07;;;15.90;;
7080;SDS011;3582;51.506;11.948;2023-06-01T04:52:06;14.77;;;11.40;;
7080;SDS011;3582;51.506;11.948;2023-06-01T04:54:37;15.43;;;11.90;;
7080;SDS011;3582;51.506;11.948;2023-06-01T04:57:03;19.27;;;12.53;;
7080;SDS011;3582;51.506;11.948;2023-06-01T04:59:31;17.30;;;11.27;;
7080;SDS011;3582;51.506;11.948;2023-06-01T05:01:57;16.37;;;12.83;;
7080;SDS011;3582;51.506;11.948;2023-06-01T05:04:23;18.83;;;12.23;;
7080;SDS011;3582;51.506;11.948;2023-06-01T05:06:49;17.20;;;13.27;;
7080;SDS011;3582;51.506;11.948;2023-06-01T05:09:15;18.93;;;13.23;;
7080;SDS011;3582;51.506;11.948;2023-06-01T05:11:43;18.00;;;14.83;;
7080;SDS011;3582;51.506;11.948;2023-06-01T05:14:09;22.33;;;14.37;;
7080;SDS011;3582;51.506;11.948;2023-06-01T05:16:35;29.77;;;18.10;;
7080;SDS011;3582;51.506;11.948;2023-06-01T05:19:01;21.83;;;17.73;;
7080;SDS011;3582;51.506;11.948;2023-06-01T05:21:27;26.77;;;17.27;;
7080;SDS011;3582;51.506;11.948;2023-06-01T05:23:53;28.10;;;17.27;;
7080;SDS011;3582;51.506;11.948;2023-06-01T05:26:19;33.63;;;20.40;;
7080;SDS011;3582;51.506;11.948;2023-06-01T05:28:47;26.17;;;18.90;;
7080;SDS011;3582;51.506;11.948;2023-06-01T05:31:13;26.03;;;17.63;;
7080;SDS011;3582;51.506;11.948;2023-06-01T05:33:39;30.17;;;18.60;;
7080;SDS011;3582;51.506;11.948;2023-06-01T05:36:05;29.63;;;19.20;;
7080;SDS011;3582;51.506;11.948;2023-06-01T05:38:31;31.17;;;19.83;;
7080;SDS011;3582;51.506;11.948;2023-06-01T05:40:57;26.77;;;22.70;;
7080;SDS011;3582;51.506;11.948;2023-06-01T05:43:23;31.17;;;20.67;;
7080;SDS011;3582;51.506;11.948;2023-06-01T05:45:49;30.07;;;22.50;;
7080;SDS011;3582;51.506;11.948;2023-06-01T05:48:15;32.67;;;22.47;;
7080;SDS011;3582;51.506;11.948;2023-06-01T05:50:41;32.90;;;23.77;;
7080;SDS011;3582;51.506;11.948;2023-06-01T05:53:08;34.10;;;24.10;;
7080;SDS011;3582;51.506;11.948;2023-06-01T05:55:34;26.30;;;20.37;;
7080;SDS011;3582;51.506;11.948;2023-06-01T05:58:00;32.43;;;22.83;;
7080;SDS011;3582;51.506;11.948;2023-06-01T06:00:26;36.43;;;24.40;;
7080;SDS011;3582;51.506;11.948;2023-06-01T06:02:52;34.83;;;21.50;;
7080;SDS011;3582;51.506;11.948;2023-06-01T06:05:18;27.63;;;19.53;;
7080;SDS011;3582;51.506;11.948;2023-06-01T06:07:44;29.17;;;20.63;;
7080;SDS011;3582;51.506;11.948;2023-06-01T06:10:11;28.70;;;19.20;;
7080;SDS011;3582;51.506;11.948;2023-06-01T06:12:37;31.10;;;20.00;;
7080;SDS011;3582;51.506;11.948;2023-06-01T06:15:03;29.63;;;19.83;;
7080;SDS011;3582;51.506;11.948;2023-06-01T06:17:29;27.97;;;18.83;;
7080;SDS011;3582;51.506;11.948;2023-06-01T06:19:55;22.80;;;18.30;;
7080;SDS011;3582;51.506;11.948;2023-06-01T06:22:21;29.30;;;20.13;;
7080;SDS011;3582;51.506;11.948;2023-06-01T06:24:47;30.10;;;21.87;;
7080;SDS011;3582;51.506;11.948;2023-06-01T06:27:14;29.33;;;22.63;;
7080;SDS011;3582;51.506;11.948;2023-06-01T06:29:40;35.17;;;23.30;;
7080;SDS011;3582;51.506;11.948;2023-06-01T06:32:06;35.47;;;26.30;;
7080;SDS011;3582;51.506;11.948;2023-06-01T06:34:32;38.27;;;27.37;;
7080;SDS011;3582;51.506;11.948;2023-06-01T06:37:06;38.03;;;27.07;;
7080;SDS011;3582;51.506;11.948;2023-06-01T06:39:32;36.60;;;29.07;;
7080;SDS011;3582;51.506;11.948;2023-06-01T06:41:59;43.60;;;30.53;;
7080;SDS011;3582;51.506;11.948;2023-06-01T06:44:27;37.20;;;28.20;;
7080;SDS011;3582;51.506;11.948;2023-06-01T06:46:53;39.80;;;30.57;;
7080;SDS011;3582;51.506;11.948;2023-06-01T06:49:19;42.30;;;31.30;;
7080;SDS011;3582;51.506;11.948;2023-06-01T06:51:45;43.23;;;31.73;;
7080;SDS011;3582;51.506;11.948;2023-06-01T06:54:11;42.87;;;31.70;;
7080;SDS011;3582;51.506;11.948;2023-06-01T06:56:37;73.77;;;36.40;;
7080;SDS011;3582;51.506;11.948;2023-06-01T06:59:03;43.87;;;32.90;;
7080;SDS011;3582;51.506;11.948;2023-06-01T07:01:29;45.33;;;32.70;;
7080;SDS011;3582;51.506;11.948;2023-06-01T07:03:56;43.00;;;32.50;;
7080;SDS011;3582;51.506;11.948;2023-06-01T07:06:22;46.90;;;33.07;;
7080;SDS011;3582;51.506;11.948;2023-06-01T07:08:48;44.83;;;33.63;;
7080;SDS011;3582;51.506;11.948;2023-06-01T07:11:14;46.13;;;34.40;;
7080;SDS011;3582;51.506;11.948;2023-06-01T07:13:40;41.47;;;30.73;;
7080;SDS011;3582;51.506;11.948;2023-06-01T07:16:06;51.33;;;35.40;;
7080;SDS011;3582;51.506;11.948;2023-06-01T07:18:32;47.67;;;32.37;;
7080;SDS011;3582;51.506;11.948;2023-06-01T07:20:58;42.63;;;33.30;;
7080;SDS011;3582;51.506;11.948;2023-06-01T07:23:24;48.40;;;34.43;;
7080;SDS011;3582;51.506;11.948;2023-06-01T07:25:51;43.27;;;35.03;;
7080;SDS011;3582;51.506;11.948;2023-06-01T07:28:17;46.43;;;34.23;;
7080;SDS011;3582;51.506;11.948;2023-06-01T07:30:43;40.13;;;33.23;;
7080;SDS011;3582;51.506;11.948;2023-06-01T07:33:09;41.57;;;33.03;;
7080;SDS011;3582;51.506;11.948;2023-06-01T07:35:36;47.33;;;35.80;;
7080;SDS011;3582;51.506;11.948;2023-06-01T07:38:02;58.80;;;40.10;;
7080;SDS011;3582;51.506;11.948;2023-06-01T07:40:28;46.30;;;35.80;;
7080;SDS011;3582;51.506;11.948;2023-06-01T07:42:57;48.03;;;33.40;;
7080;SDS011;3582;51.506;11.948;2023-06-01T07:45:23;40.97;;;34.33;;
7080;SDS011;3582;51.506;11.948;2023-06-01T07:47:49;37.23;;;31.63;;
7080;SDS011;3582;51.506;11.948;2023-06-01T07:50:16;41.70;;;30.13;;
7080;SDS011;3582;51.506;11.948;2023-06-01T07:52:42;37.40;;;29.97;;
7080;SDS011;3582;51.506;11.948;2023-06-01T07:55:08;33.87;;;25.33;;
7080;SDS011;3582;51.506;11.948;2023-06-01T07:57:35;37.10;;;28.03;;
7080;SDS011;3582;51.506;11.948;2023-06-01T08:00:01;39.57;;;29.60;;
7080;SDS011;3582;51.506;11.948;2023-06-01T08:02:28;33.50;;;28.53;;
7080;SDS011;3582;51.506;11.948;2023-06-01T08:04:54;36.20;;;30.70;;
7080;SDS011;3582;51.506;11.948;2023-06-01T08:07:22;37.17;;;28.50;;
7080;SDS011;3582;51.506;11.948;2023-06-01T08:09:48;34.33;;;28.47;;
7080;SDS011;3582;51.506;11.948;2023-06-01T08:12:15;34.13;;;27.70;;
7080;SDS011;3582;51.506;11.948;2023-06-01T08:14:41;32.73;;;28.13;;
7080;SDS011;3582;51.506;11.948;2023-06-01T08:17:10;41.57;;;30.03;;
7080;SDS011;3582;51.506;11.948;2023-06-01T08:19:36;32.77;;;29.23;;
7080;SDS011;3582;51.506;11.948;2023-06-01T08:22:02;33.40;;;29.30;;
7080;SDS011;3582;51.506;11.948;2023-06-01T08:24:30;30.23;;;27.10;;
7080;SDS011;3582;51.506;11.948;2023-06-01T08:26:57;32.70;;;25.60;;
7080;SDS011;3582;51.506;11.948;2023-06-01T08:29:23;32.50;;;26.37;;
7080;SDS011;3582;51.506;11.948;2023-06-01T08:31:49;33.63;;;29.03;;
7080;SDS011;3582;51.506;11.948;2023-06-01T08:34:15;34.80;;;31.10;;
7080;SDS011;3582;51.506;11.948;2023-06-01T08:36:41;36.70;;;30.90;;
7080;SDS011;3582;51.506;11.948;2023-06-01T08:39:23;37.90;;;31.20;;
7080;SDS011;3582;51.506;11.948;2023-06-01T08:44:21;37.60;;;31.57;;
7080;SDS011;3582;51.506;11.948;2023-06-01T08:46:48;34.33;;;28.80;;
7080;SDS011;3582;51.506;11.948;2023-06-01T08:49:14;38.63;;;30.87;;
7080;SDS011;3582;51.506;11.948;2023-06-01T08:51:40;39.00;;;31.77;;
7080;SDS011;3582;51.506;11.948;2023-06-01T08:54:08;35.97;;;32.13;;
7080;SDS011;3582;51.506;11.948;2023-06-01T08:56:35;38.53;;;32.07;;
7080;SDS011;3582;51.506;11.948;2023-06-01T08:59:06;37.67;;;32.10;;
7080;SDS011;3582;51.506;11.948;2023-06-01T09:01:32;40.30;;;31.87;;
7080;SDS011;3582;51.506;11.948;2023-06-01T09:03:58;43.47;;;32.40;;
7080;SDS011;3582;51.506;11.948;2023-06-01T09:06:24;36.37;;;32.40;;
7080;SDS011;3582;51.506;11.948;2023-06-01T09:08:51;41.47;;;33.30;;
7080;SDS011;3582;51.506;11.948;2023-06-01T09:11:17;36.83;;;31.87;;
7080;SDS011;3582;51.506;11.948;2023-06-01T09:13:43;36.83;;;31.40;;
7080;SDS011;3582;51.506;11.948;2023-06-01T09:16:09;37.50;;;30.87;;
7080;SDS011;3582;51.506;11.948;2023-06-01T09:18:35;38.17;;;29.50;;
7080;SDS011;3582;51.506;11.948;2023-06-01T09:23:36;35.60;;;29.40;;
7080;SDS011;3582;51.506;11.948;2023-06-01T09:26:12;35.17;;;30.63;;
7080;SDS011;3582;51.506;11.948;2023-06-01T09:28:55;39.13;;;31.00;;
7080;SDS011;3582;51.506;11.948;2023-06-01T09:34:02;38.13;;;30.10;;
7080;SDS011;3582;51.506;11.948;2023-06-01T09:36:28;35.07;;;31.27;;
7080;SDS011;3582;51.506;11.948;2023-06-01T09:39:01;35.17;;;29.20;;
7080;SDS011;3582;51.506;11.948;2023-06-01T09:41:27;33.90;;;25.97;;
7080;SDS011;3582;51.506;11.948;2023-06-01T09:43:56;32.27;;;26.93;;
7080;SDS011;3582;51.506;11.948;2023-06-01T09:46:22;33.37;;;29.30;;
7080;SDS011;3582;51.506;11.948;2023-06-01T09:48:48;41.53;;;29.97;;
7080;SDS011;3582;51.506;11.948;2023-06-01T09:51:22;37.10;;;30.07;;
7080;SDS011;3582;51.506;11.948;2023-06-01T09:53:50;31.47;;;27.13;;
7080;SDS011;3582;51.506;11.948;2023-06-01T09:56:16;34.53;;;27.50;;
7080;SDS011;3582;51.506;11.948;2023-06-01T09:58:42;36.27;;;27.17;;
7080;SDS011;3582;51.506;11.948;2023-06-01T10:01:08;33.30;;;26.60;;
7080;SDS011;3582;51.506;11.948;2023-06-01T10:03:35;38.97;;;28.60;;
7080;SDS011;3582;51.506;11.948;2023-06-01T10:06:02;38.80;;;30.87;;
7080;SDS011;3582;51.506;11.948;2023-06-01T10:08:30;41.73;;;30.67;;
7080;SDS011;3582;51.506;11.948;2023-06-01T10:10:57;35.20;;;28.20;;
7080;SDS011;3582;51.506;11.948;2023-06-01T10:13:23;36.80;;;28.80;;
7080;SDS011;3582;51.506;11.948;2023-06-01T10:15:53;40.20;;;27.77;;
7080;SDS011;3582;51.506;11.948;2023-06-01T10:18:20;34.93;;;25.90;;
7080;SDS011;3582;51.506;11.948;2023-06-01T10:20:46;35.07;;;24.70;;
7080;SDS011;3582;51.506;11.948;2023-06-01T10:23:12;31.30;;;23.57;;
7080;SDS011;3582;51.506;11.948;2023-06-01T10:25:39;27.93;;;23.70;;
7080;SDS011;3582;51.506;11.948;2023-06-01T10:28:08;30.33;;;23.43;;
7080;SDS011;3582;51.506;11.948;2023-06-01T10:30:35;28.03;;;21.63;;
7080;SDS011;3582;51.506;11.948;2023-06-01T10:33:01;24.87;;;21.33;;
7080;SDS011;3582;51.506;11.948;2023-06-01T10:38:30;25.90;;;21.77;;
7080;SDS011;3582;51.506;11.948;2023-06-01T10:40:49;23.90;;;20.63;;
7080;SDS011;3582;51.506;11.948;2023-06-01T10:46:00;23.80;;;21.30;;
7080;SDS011;3582;51.506;11.948;2023-06-01T10:51:21;27.30;;;22.50;;
7080;SDS011;3582;51.506;11.948;2023-06-01T10:53:48;23.43;;;20.87;;
7080;SDS011;3582;51.506;11.948;2023-06-01T10:59:09;29.23;;;23.87;;
7080;SDS011;3582;51.506;11.948;2023-06-01T11:01:35;26.20;;;20.93;;
7080;SDS011;3582;51.506;11.948;2023-06-01T11:04:02;23.00;;;20.60;;
7080;SDS011;3582;51.506;11.948;2023-06-01T11:06:31;22.80;;;19.37;;
7080;SDS011;3582;51.506;11.948;2023-06-01T11:08:59;29.23;;;21.63;;
7080;SDS011;3582;51.506;11.948;2023-06-01T11:14:11;26.87;;;20.43;;
7080;SDS011;3582;51.506;11.948;2023-06-01T11:16:37;23.20;;;19.63;;
7080;SDS011;3582;51.506;11.948;2023-06-01T11:19:04;22.07;;;18.37;;
7080;SDS011;3582;51.506;11.948;2023-06-01T11:23:58;23.13;;;18.83;;
7080;SDS011;3582;51.506;11.948;2023-06-01T11:26:46;22.63;;;20.03;;
7080;SDS011;3582;51.506;11.948;2023-06-01T11:31:41;22.90;;;20.60;;
7080;SDS011;3582;51.506;11.948;2023-06-01T11:34:08;22.27;;;19.97;;
7080;SDS011;3582;51.506;11.948;2023-06-01T11:36:38;22.43;;;18.43;;
7080;SDS011;3582;51.506;11.948;2023-06-01T11:39:17;22.67;;;16.80;;
7080;SDS011;3582;51.506;11.948;2023-06-01T11:41:47;21.97;;;17.20;;
7080;SDS011;3582;51.506;11.948;2023-06-01T11:44:14;20.77;;;18.77;;
7080;SDS011;3582;51.506;11.948;2023-06-01T11:47:13;21.33;;;19.23;;
7080;SDS011;3582;51.506;11.948;2023-06-01T11:49:42;27.30;;;17.10;;
7080;SDS011;3582;51.506;11.948;2023-06-01T11:52:09;18.03;;;16.33;;
7080;SDS011;3582;51.506;11.948;2023-06-01T11:54:35;20.57;;;15.43;;
7080;SDS011;3582;51.506;11.948;2023-06-01T11:57:02;19.17;;;17.30;;
7080;SDS011;3582;51.506;11.948;2023-06-01T11:59:36;28.40;;;19.80;;
7080;SDS011;3582;51.506;11.948;2023-06-01T12:02:02;22.43;;;18.97;;
7080;SDS011;3582;51.506;11.948;2023-06-01T12:04:28;27.87;;;19.10;;
7080;SDS011;3582;51.506;11.948;2023-06-01T12:07:04;23.00;;;17.00;;
7080;SDS011;3582;51.506;11.948;2023-06-01T12:09:33;19.33;;;15.93;;
7080;SDS011;3582;51.506;11.948;2023-06-01T12:12:00;20.53;;;17.40;;
7080;SDS011;3582;51.506;11.948;2023-06-01T12:14:26;16.43;;;14.73;;
7080;SDS011;3582;51.506;11.948;2023-06-01T12:16:57;16.83;;;15.13;;
7080;SDS011;3582;51.506;11.948;2023-06-01T12:19:30;19.13;;;16.80;;
7080;SDS011;3582;51.506;11.948;2023-06-01T12:21:57;17.43;;;15.50;;
7080;SDS011;3582;51.506;11.948;2023-06-01T12:24:27;21.43;;;17.30;;
7080;SDS011;3582;51.506;11.948;2023-06-01T12:26:57;21.60;;;15.40;;
7080;SDS011;3582;51.506;11.948;2023-06-01T12:29:37;17.70;;;14.33;;
7080;SDS011;3582;51.506;11.948;2023-06-01T12:32:04;14.97;;;13.40;;
7080;SDS011;3582;51.506;11.948;2023-06-01T12:34:30;15.90;;;14.17;;
7080;SDS011;3582;51.506;11.948;2023-06-01T12:36:56;13.53;;;12.23;;
7080;SDS011;3582;51.506;11.948;2023-06-01T12:39:32;16.73;;;14.43;;
7080;SDS011;3582;51.506;11.948;2023-06-01T12:42:06;13.67;;;12.57;;
7080;SDS011;3582;51.506;11.948;2023-06-01T12:44:32;15.33;;;13.47;;
7080;SDS011;3582;51.506;11.948;2023-06-01T12:46:58;15.70;;;13.27;;
7080;SDS011;3582;51.506;11.948;2023-06-01T12:49:25;18.03;;;13.20;;
7080;SDS011;3582;51.506;11.948;2023-06-01T12:51:51;14.97;;;13.47;;
7080;SDS011;3582;51.506;11.948;2023-06-01T12:54:18;19.30;;;15.17;;
7080;SDS011;3582;51.506;11.948;2023-06-01T12:56:44;15.00;;;13.47;;
7080;SDS011;3582;51.506;11.948;2023-06-01T12:59:10;15.63;;;12.80;;
7080;SDS011;3582;51.506;11.948;2023-06-01T13:01:36;16.10;;;13.40;;
7080;SDS011;3582;51.506;11.948;2023-06-01T13:04:02;15.20;;;13.60;;
7080;SDS011;3582;51.506;11.948;2023-06-01T13:06:28;17.70;;;14.37;;
7080;SDS011;3582;51.506;11.948;2023-06-01T13:08:54;14.80;;;13.40;;
7080;SDS011;3582;51.506;11.948;2023-06-01T13:11:20;17.37;;;13.00;;
7080;SDS011;3582;51.506;11.948;2023-06-01T13:13:49;15.93;;;14.30;;
7080;SDS011;3582;51.506;11.948;2023-06-01T13:16:15;17.90;;;13.23;;
7080;SDS011;3582;51.506;11.948;2023-06-01T13:18:42;17.03;;;12.93;;
7080;SDS011;3582;51.506;11.948;2023-06-01T13:21:08;14.30;;;12.87;;
7080;SDS011;3582;51.506;11.948;2023-06-01T13:23:35;16.00;;;13.20;;
7080;SDS011;3582;51.506;11.948;2023-06-01T13:26:00;13.23;;;11.40;;
7080;SDS011;3582;51.506;11.948;2023-06-01T13:28:26;14.00;;;12.63;;
7080;SDS011;3582;51.506;11.948;2023-06-01T13:30:52;13.77;;;12.43;;
7080;SDS011;3582;51.506;11.948;2023-06-01T13:33:20;14.70;;;11.20;;
7080;SDS011;3582;51.506;11.948;2023-06-01T13:35:46;15.47;;;12.50;;
7080;SDS011;3582;51.506;11.948;2023-06-01T13:38:12;14.70;;;12.77;;
7080;SDS011;3582;51.506;11.948;2023-06-01T13:40:38;14.50;;;12.87;;
7080;SDS011;3582;51.506;11.948;2023-06-01T13:43:04;14.40;;;13.20;;
7080;SDS011;3582;51.506;11.948;2023-06-01T13:45:31;14.17;;;12.13;;
7080;SDS011;3582;51.506;11.948;2023-06-01T13:47:57;15.40;;;12.90;;
7080;SDS011;3582;51.506;11.948;2023-06-01T13:50:23;24.87;;;14.50;;
7080;SDS011;3582;51.506;11.948;2023-06-01T13:52:49;19.60;;;14.20;;
7080;SDS011;3582;51.506;11.948;2023-06-01T13:55:17;16.53;;;14.70;;
7080;SDS011;3582;51.506;11.948;2023-06-01T13:57:43;24.47;;;15.30;;
7080;SDS011;3582;51.506;11.948;2023-06-01T14:00:09;18.67;;;16.33;;
7080;SDS011;3582;51.506;11.948;2023-06-01T14:02:35;17.60;;;14.47;;
7080;SDS011;3582;51.506;11.948;2023-06-01T14:05:01;17.33;;;12.37;;
7080;SDS011;3582;51.506;11.948;2023-06-01T14:07:27;14.47;;;11.83;;
7080;SDS011;3582;51.506;11.948;2023-06-01T14:09:53;18.80;;;14.20;;
7080;SDS011;3582;51.506;11.948;2023-06-01T14:12:19;14.40;;;12.90;;
7080;SDS011;3582;51.506;11.948;2023-06-01T14:14:45;16.83;;;13.70;;
7080;SDS011;3582;51.506;11.948;2023-06-01T14:17:11;15.23;;;13.73;;
7080;SDS011;3582;51.506;11.948;2023-06-01T14:19:37;17.07;;;13.93;;
7080;SDS011;3582;51.506;11.948;2023-06-01T14:22:03;16.90;;;13.60;;
7080;SDS011;3582;51.506;11.948;2023-06-01T14:24:29;15.53;;;13.60;;
7080;SDS011;3582;51.506;11.948;2023-06-01T14:26:55;20.37;;;13.97;;
7080;SDS011;3582;51.506;11.948;2023-06-01T14:29:21;19.90;;;13.40;;
7080;SDS011;3582;51.506;11.948;2023-06-01T14:31:47;12.70;;;11.50;;
7080;SDS011;3582;51.506;11.948;2023-06-01T14:34:13;17.33;;;9.67;;
7080;SDS011;3582;51.506;11.948;2023-06-01T14:36:40;11.47;;;9.67;;
7080;SDS011;3582;51.506;11.948;2023-06-01T14:39:06;18.35;;;10.05;;
7080;SDS011;3582;51.506;11.948;2023-06-01T14:41:32;15.23;;;10.00;;
7080;SDS011;3582;51.506;11.948;2023-06-01T14:43:58;12.97;;;10.73;;
7080;SDS011;3582;51.506;11.948;2023-06-01T14:46:24;11.60;;;9.80;;
7080;SDS011;3582;51.506;11.948;2023-06-01T14:48:50;12.83;;;9.93;;
7080;SDS011;3582;51.506;11.948;2023-06-01T14:51:16;14.83;;;11.80;;
7080;SDS011;3582;51.506;11.948;2023-06-01T14:53:42;11.53;;;10.13;;
7080;SDS011;3582;51.506;11.948;2023-06-01T14:56:09;11.63;;;10.50;;
7080;SDS011;3582;51.506;11.948;2023-06-01T14:58:35;21.10;;;12.27;;
7080;SDS011;3582;51.506;11.948;2023-06-01T15:01:01;16.50;;;12.37;;
7080;SDS011;3582;51.506;11.948;2023-06-01T15:03:27;18.87;;;11.53;;
7080;SDS011;3582;51.506;11.948;2023-06-01T15:05:53;12.27;;;10.37;;
7080;SDS011;3582;51.506;11.948;2023-06-01T15:08:19;18.27;;;10.33;;
7080;SDS011;3582;51.506;11.948;2023-06-01T15:10:46;10.13;;;9.13;;
7080;SDS011;3582;51.506;11.948;2023-06-01T15:13:12;14.73;;;9.40;;
7080;SDS011;3582;51.506;11.948;2023-06-01T15:15:41;16.33;;;8.10;;